Time;durP1;ratioP1;P1;durP2;ratioP2;P2;SDS_P1;SDS_P2;PMS_P1;PMS_P2;Temp;Humidity;BMP_temperature;BMP_pressure;BME280_temperature;BME280_humidity;BME280_pressure;Samples;Min_cycle;Max_cycle;Signal;HPM_P1;HPM_P2
2021/12/10 00:02:12;;;;;;;0.20;0.20;;;;;;;5.37;100.00;98846.78;5039961;28;20696;-48
2021/12/10 00:04:42;;;;;;;0.20;0.20;;;;;;;5.47;100.00;98844.69;5038638;28;20932;-48
2021/12/10 00:07:14;;;;;;;0.20;0.13;;;;;;;5.41;100.00;98845.78;5042952;28;20451;-48
2021/12/10 00:09:45;;;;;;;0.20;0.20;;;;;;;5.48;100.00;98835.88;5048974;28;20513;-48
2021/12/10 00:12:16;;;;;;;0.20;0.10;;;;;;;5.48;100.00;98842.03;5040604;28;20478;-48
2021/12/10 00:14:44;;;;;;;0.40;0.40;;;;;;;5.45;100.00;98833.34;5050425;28;20836;-48
2021/12/10 00:17:13;;;;;;;0.30;0.20;;;;;;;5.50;100.00;98820.91;5051701;28;20994;-48
2021/12/10 00:19:46;;;;;;;0.20;0.20;;;;;;;5.52;100.00;98824.34;5047827;28;20923;-48
2021/12/10 00:22:21;;;;;;;0.20;0.10;;;;;;;5.46;100.00;98812.22;5048879;28;20447;-49
2021/12/10 00:24:49;;;;;;;0.20;0.10;;;;;;;5.46;100.00;98811.34;5036092;28;20569;-48
2021/12/10 00:27:26;;;;;;;0.20;0.17;;;;;;;5.57;100.00;98799.56;5050481;28;20970;-48
2021/12/10 00:30:03;;;;;;;0.20;0.17;;;;;;;5.54;100.00;98797.03;5055454;28;20983;-49
2021/12/10 00:32:35;;;;;;;0.20;0.10;;;;;;;5.68;100.00;98803.63;5050848;28;20541;-48
2021/12/10 00:35:08;;;;;;;0.20;0.20;;;;;;;5.70;100.00;98799.16;5048856;28;20496;-48
2021/12/10 00:37:36;;;;;;;0.20;0.10;;;;;;;5.58;100.00;98793.38;5042090;28;20447;-50
2021/12/10 00:40:06;;;;;;;0.20;0.10;;;;;;;5.51;100.00;98780.47;5042518;28;20534;-48
2021/12/10 00:42:35;;;;;;;0.20;0.20;;;;;;;5.57;100.00;98777.63;5042633;28;20990;-48
2021/12/10 00:45:05;;;;;;;0.20;0.20;;;;;;;5.44;100.00;98771.88;5049305;28;20908;-48
2021/12/10 00:47:32;;;;;;;0.30;0.30;;;;;;;5.56;100.00;98766.22;5055653;28;20450;-48
2021/12/10 00:49:59;;;;;;;0.20;0.10;;;;;;;5.48;100.00;98763.00;5041793;28;20468;-48
2021/12/10 00:52:26;;;;;;;0.20;0.20;;;;;;;5.47;100.00;98757.75;5047121;28;20447;-48
2021/12/10 00:54:53;;;;;;;0.20;0.10;;;;;;;5.52;100.00;98750.56;5050493;28;20447;-48
2021/12/10 00:57:20;;;;;;;2.83;1.07;;;;;;;5.38;100.00;98737.00;5055267;28;20462;-49
2021/12/10 00:59:49;;;;;;;0.20;0.10;;;;;;;5.37;100.00;98735.28;5052703;28;20494;-48
2021/12/10 01:02:20;;;;;;;0.20;0.10;;;;;;;5.45;100.00;98722.69;5044804;28;20489;-48
2021/12/10 01:04:57;;;;;;;0.20;0.10;;;;;;;5.48;100.00;98718.19;5051724;28;20538;-48
2021/12/10 01:07:28;;;;;;;0.20;0.10;;;;;;;5.40;100.00;98712.31;5046951;28;20443;-48
2021/12/10 01:09:57;;;;;;;0.20;0.10;;;;;;;5.24;100.00;98706.69;5041485;28;20524;-48
2021/12/10 01:12:31;;;;;;;0.20;0.10;;;;;;;5.33;100.00;98705.50;5042719;28;20490;-49
2021/12/10 01:23:50;;;;;;;0.20;0.10;;;;;;;5.09;100.00;98688.75;5035159;28;20452;-48
2021/12/10 01:29:22;;;;;;;0.20;0.10;;;;;;;4.97;100.00;98686.50;5050880;28;20448;-48
2021/12/10 01:31:49;;;;;;;0.20;0.10;;;;;;;4.90;100.00;98684.97;5046552;28;20878;-48
2021/12/10 01:34:16;;;;;;;0.20;0.10;;;;;;;4.95;100.00;98683.06;5043444;28;20461;-48
2021/12/10 01:36:43;;;;;;;0.20;0.17;;;;;;;4.99;100.00;98672.38;5042679;28;20479;-48
2021/12/10 01:39:15;;;;;;;0.20;0.10;;;;;;;4.92;100.00;98664.72;5053705;28;20497;-49
2021/12/10 01:41:43;;;;;;;0.20;0.10;;;;;;;4.82;100.00;98655.41;5054634;28;20573;-49
2021/12/10 01:44:26;;;;;;;0.20;0.10;;;;;;;4.98;100.00;98664.53;5034905;28;20447;-48
2021/12/10 01:46:54;;;;;;;0.20;0.10;;;;;;;4.97;100.00;98655.78;5050340;28;20447;-48
2021/12/10 01:49:21;;;;;;;0.20;0.10;;;;;;;4.84;100.00;98664.97;5044814;28;20534;-48
2021/12/10 01:51:48;;;;;;;0.20;0.10;;;;;;;4.98;100.00;98659.28;5050566;28;20510;-49
2021/12/10 01:54:26;;;;;;;0.20;0.10;;;;;;;4.92;100.00;98657.69;5054688;28;20475;-48
2021/12/10 01:56:56;;;;;;;0.20;0.10;;;;;;;5.14;100.00;98649.09;5049442;28;20452;-48
2021/12/10 01:59:27;;;;;;;0.20;0.10;;;;;;;4.96;100.00;98635.63;5046294;28;20471;-48
2021/12/10 02:02:02;;;;;;;0.20;0.10;;;;;;;4.91;100.00;98634.91;5041038;28;20447;-48
2021/12/10 02:04:32;;;;;;;0.20;0.10;;;;;;;4.70;100.00;98630.34;5040995;28;20526;-48
2021/12/10 02:07:00;;;;;;;0.20;0.10;;;;;;;4.72;100.00;98621.47;5046708;28;20452;-48
2021/12/10 02:09:27;;;;;;;0.20;0.10;;;;;;;4.88;100.00;98613.94;5049021;28;20505;-49
2021/12/10 02:11:54;;;;;;;0.20;0.10;;;;;;;4.88;100.00;98606.06;5054061;28;20994;-48
2021/12/10 02:14:21;;;;;;;1.53;1.10;;;;;;;4.82;100.00;98601.00;5052374;28;20478;-48
2021/12/10 02:16:50;;;;;;;0.20;0.10;;;;;;;4.91;100.00;98608.56;5042547;28;20797;-49
2021/12/10 02:19:17;;;;;;;0.20;0.10;;;;;;;4.86;100.00;98597.34;5048265;28;20819;-48
2021/12/10 02:21:46;;;;;;;0.20;0.10;;;;;;;5.01;100.00;98593.34;5043095;28;20487;-48
2021/12/10 02:24:12;;;;;;;0.20;0.10;;;;;;;4.82;100.00;98582.56;5040476;28;20451;-48
2021/12/10 02:26:53;;;;;;;0.20;0.10;;;;;;;4.78;100.00;98573.03;5042928;28;20937;-49
2021/12/10 02:29:23;;;;;;;0.20;0.10;;;;;;;4.87;100.00;98563.97;5051834;28;20492;-48
2021/12/10 02:31:51;;;;;;;0.20;0.10;;;;;;;5.27;100.00;98563.47;5053616;28;20951;-48
2021/12/10 02:34:18;;;;;;;0.20;0.10;;;;;;;5.01;100.00;98559.13;5053402;28;20439;-49
2021/12/10 02:36:44;;;;;;;0.20;0.10;;;;;;;4.82;100.00;98553.63;5041182;28;20451;-48
2021/12/10 02:39:14;;;;;;;0.30;0.10;;;;;;;4.86;100.00;98551.75;5052778;28;20447;-48
2021/12/10 02:41:42;;;;;;;0.20;0.10;;;;;;;4.84;100.00;98540.41;5052458;28;20522;-48
2021/12/10 02:44:12;;;;;;;0.30;0.20;;;;;;;4.80;100.00;98529.13;5033598;28;20459;-47
2021/12/10 02:46:39;;;;;;;0.20;0.13;;;;;;;4.77;100.00;98518.69;5047181;28;20568;-47
2021/12/10 02:49:09;;;;;;;0.20;0.10;;;;;;;4.86;100.00;98518.38;5045953;28;20956;-48
2021/12/10 02:51:36;;;;;;;0.20;0.10;;;;;;;4.79;100.00;98519.47;5047685;28;20447;-50
2021/12/10 02:54:05;;;;;;;0.20;0.10;;;;;;;4.78;100.00;98509.00;5052957;28;20485;-48
2021/12/10 02:56:32;;;;;;;0.20;0.10;;;;;;;4.72;100.00;98500.44;5051077;28;20509;-49
2021/12/10 02:59:01;;;;;;;0.20;0.10;;;;;;;4.76;100.00;98496.75;5041983;28;20462;-48
2021/12/10 03:01:41;;;;;;;0.20;0.10;;;;;;;4.64;100.00;98488.44;5050633;28;20560;-48
2021/12/10 03:04:09;;;;;;;0.20;0.20;;;;;;;4.67;100.00;98486.56;5044276;28;20442;-48
2021/12/10 03:06:43;;;;;;;0.20;0.10;;;;;;;4.70;100.00;98481.19;5039550;28;20536;-48
2021/12/10 03:09:11;;;;;;;0.20;0.10;;;;;;;4.54;100.00;98480.00;5040693;28;20509;-48
2021/12/10 03:11:39;;;;;;;0.20;0.10;;;;;;;4.53;100.00;98466.91;5052216;28;20482;-47
2021/12/10 03:14:10;;;;;;;0.20;0.20;;;;;;;3.96;100.00;98473.97;5052809;28;20482;-48
2021/12/10 03:16:39;;;;;;;0.20;0.20;;;;;;;3.83;100.00;98476.13;5033219;28;20538;-48
2021/12/10 03:19:06;;;;;;;0.30;0.20;;;;;;;3.63;100.00;98475.88;5046366;28;20568;-48
2021/12/10 03:21:37;;;;;;;0.20;0.10;;;;;;;3.42;100.00;98463.38;5040344;28;20490;-47
2021/12/10 03:24:05;;;;;;;0.30;0.30;;;;;;;3.25;100.00;98466.50;5039572;28;20447;-47
2021/12/10 03:26:32;;;;;;;0.20;0.10;;;;;;;3.22;100.00;98456.94;5044225;28;20510;-48
2021/12/10 03:28:59;;;;;;;0.20;0.10;;;;;;;3.31;100.00;98457.59;5046084;28;20485;-48
2021/12/10 03:31:27;;;;;;;0.20;0.13;;;;;;;3.38;100.00;98446.84;5041783;28;20501;-48
2021/12/10 03:33:56;;;;;;;0.20;0.10;;;;;;;3.46;100.00;98441.38;5040575;28;20447;-49
2021/12/10 03:36:23;;;;;;;0.20;0.10;;;;;;;3.38;100.00;98435.50;5043335;28;20479;-48
2021/12/10 03:38:51;;;;;;;0.20;0.10;;;;;;;3.32;100.00;98438.31;5046006;28;20480;-48
2021/12/10 03:41:18;;;;;;;0.20;0.10;;;;;;;3.38;100.00;98432.88;5042372;28;20521;-48
2021/12/10 03:43:47;;;;;;;0.20;0.10;;;;;;;3.50;100.00;98445.63;5039153;28;20454;-47
2021/12/10 03:46:16;;;;;;;0.20;0.10;;;;;;;3.63;100.00;98436.47;5041850;28;21014;-48
2021/12/10 03:48:45;;;;;;;0.20;0.10;;;;;;;3.61;100.00;98437.44;5045857;28;20455;-47
2021/12/10 03:51:17;;;;;;;0.20;0.10;;;;;;;3.53;100.00;98435.03;5044146;28;20471;-48
2021/12/10 03:53:45;;;;;;;0.20;0.10;;;;;;;3.49;100.00;98436.03;5046257;28;20447;-48
2021/12/10 03:56:16;;;;;;;0.20;0.10;;;;;;;3.54;100.00;98434.97;5045481;28;20447;-48
2021/12/10 03:58:44;;;;;;;0.20;0.20;;;;;;;3.62;100.00;98418.16;5045194;28;20467;-49
2021/12/10 04:01:14;;;;;;;0.20;0.17;;;;;;;3.54;100.00;98418.38;5046097;28;20548;-48
2021/12/10 04:03:42;;;;;;;0.20;0.10;;;;;;;3.38;100.00;98419.75;5052479;28;20473;-47
2021/12/10 04:06:09;;;;;;;0.20;0.10;;;;;;;3.34;100.00;98421.59;5050352;28;21025;-48
2021/12/10 04:08:35;;;;;;;0.20;0.10;;;;;;;3.24;100.00;98413.13;5040955;28;20489;-48
2021/12/10 04:11:07;;;;;;;0.20;0.10;;;;;;;3.26;100.00;98419.19;5050185;28;20467;-47
2021/12/10 04:13:34;;;;;;;0.20;0.10;;;;;;;3.08;100.00;98413.63;5041484;28;20513;-48
2021/12/10 04:16:03;;;;;;;0.20;0.10;;;;;;;3.00;100.00;98415.59;5038703;28;20505;-48
2021/12/10 04:18:30;;;;;;;0.20;0.10;;;;;;;3.11;100.00;98403.91;5048104;28;20972;-48
2021/12/10 04:20:57;;;;;;;0.20;0.10;;;;;;;2.56;100.00;98405.44;5038786;28;20537;-48
2021/12/10 04:23:24;;;;;;;0.20;0.10;;;;;;;2.66;100.00;98398.19;5041281;28;20455;-48
2021/12/10 04:25:51;;;;;;;0.20;0.10;;;;;;;2.65;100.00;98397.34;5049471;28;20450;-48
2021/12/10 04:28:20;;;;;;;0.20;0.20;;;;;;;2.52;100.00;98382.81;5051908;28;20516;-48
2021/12/10 04:30:48;;;;;;;0.20;0.10;;;;;;;2.60;100.00;98378.25;5047179;28;20509;-48
2021/12/10 04:33:18;;;;;;;0.20;0.10;;;;;;;2.68;100.00;98378.88;5075772;28;20459;-48
2021/12/10 04:35:46;;;;;;;0.20;0.10;;;;;;;2.53;100.00;98366.19;5046533;28;20498;-48
2021/12/10 04:38:14;;;;;;;0.20;0.10;;;;;;;2.62;100.00;98365.94;5044336;28;20490;-48
2021/12/10 04:40:42;;;;;;;0.20;0.10;;;;;;;2.46;100.00;98361.13;5046987;28;20907;-47
2021/12/10 04:43:09;;;;;;;0.20;0.10;;;;;;;2.50;100.00;98347.94;5039339;28;20868;-48
2021/12/10 04:45:36;;;;;;;0.20;0.10;;;;;;;2.40;100.00;98337.72;5045094;28;20452;-48
2021/12/10 04:48:03;;;;;;;0.20;0.10;;;;;;;2.35;100.00;98330.84;5044345;28;20496;-48
2021/12/10 04:50:30;;;;;;;0.20;0.10;;;;;;;2.44;100.00;98323.63;5038806;28;20462;-48
2021/12/10 04:52:57;;;;;;;0.20;0.10;;;;;;;2.36;100.00;98323.84;5040309;28;20477;-48
2021/12/10 04:55:24;;;;;;;0.20;0.10;;;;;;;2.28;100.00;98316.19;5050782;28;20454;-48
2021/12/10 04:57:51;;;;;;;0.20;0.10;;;;;;;2.37;100.00;98317.72;5051761;28;20482;-48
2021/12/10 05:00:27;;;;;;;0.20;0.10;;;;;;;2.38;100.00;98314.19;5045717;28;20522;-48
2021/12/10 05:02:55;;;;;;;0.20;0.10;;;;;;;2.37;100.00;98318.56;5045764;28;20443;-48
2021/12/10 05:05:23;;;;;;;0.20;0.10;;;;;;;2.31;100.00;98313.47;5052761;28;20451;-48
2021/12/10 05:07:49;;;;;;;0.20;0.10;;;;;;;2.48;100.00;98299.91;5054353;28;20825;-48
2021/12/10 05:10:17;;;;;;;0.20;0.10;;;;;;;2.40;100.00;98299.25;5043548;28;20466;-48
2021/12/10 05:12:44;;;;;;;0.20;0.10;;;;;;;2.38;100.00;98299.31;5041858;28;20824;-48
2021/12/10 05:15:17;;;;;;;0.20;0.20;;;;;;;2.44;100.00;98294.78;5046821;28;20459;-48
2021/12/10 05:17:48;;;;;;;0.20;0.10;;;;;;;2.54;100.00;98299.72;5051147;28;20443;-48
2021/12/10 05:20:19;;;;;;;0.20;0.10;;;;;;;2.30;100.00;98289.94;5045102;28;20520;-48
2021/12/10 05:22:48;;;;;;;0.20;0.10;;;;;;;2.36;100.00;98281.91;5055246;28;20461;-48
2021/12/10 05:25:15;;;;;;;0.20;0.10;;;;;;;2.26;100.00;98276.06;5055135;28;20580;-47
2021/12/10 05:27:43;;;;;;;0.20;0.10;;;;;;;2.13;100.00;98271.19;5037024;28;20527;-48
2021/12/10 05:30:14;;;;;;;0.20;0.10;;;;;;;2.26;100.00;98270.81;5046452;28;20514;-48
2021/12/10 05:32:41;;;;;;;0.20;0.10;;;;;;;2.36;100.00;98271.44;5041552;28;20447;-47
2021/12/10 05:35:09;;;;;;;0.20;0.10;;;;;;;2.26;100.00;98268.19;5055000;28;20521;-48
2021/12/10 05:37:35;;;;;;;0.20;0.10;;;;;;;2.10;100.00;98258.19;5035419;28;20505;-48
2021/12/10 05:40:04;;;;;;;0.20;0.10;;;;;;;2.33;100.00;98258.38;5047729;28;20891;-48
2021/12/10 05:42:31;;;;;;;0.20;0.10;;;;;;;2.36;100.00;98266.19;5048761;28;20448;-49
2021/12/10 05:44:58;;;;;;;0.20;0.10;;;;;;;2.38;100.00;98249.50;5048221;28;21008;-49
2021/12/10 05:47:25;;;;;;;0.20;0.10;;;;;;;2.49;100.00;98245.72;5034768;28;20483;-49
2021/12/10 05:49:51;;;;;;;0.20;0.10;;;;;;;2.40;100.00;98238.97;5038369;28;20472;-49
2021/12/10 05:52:19;;;;;;;0.20;0.10;;;;;;;2.40;100.00;98238.13;5047890;28;20487;-49
2021/12/10 05:54:46;;;;;;;0.20;0.10;;;;;;;2.46;100.00;98236.16;5048148;28;20446;-50
2021/12/10 05:57:12;;;;;;;0.20;0.10;;;;;;;2.09;100.00;98231.13;5054274;28;20830;-49
2021/12/10 05:59:39;;;;;;;0.20;0.10;;;;;;;1.87;100.00;98233.47;5041066;28;20916;-49
2021/12/10 06:02:06;;;;;;;0.20;0.10;;;;;;;2.02;100.00;98217.31;5047142;28;21026;-49
2021/12/10 06:04:34;;;;;;;0.20;0.10;;;;;;;1.90;100.00;98212.41;5048381;28;20475;-49
2021/12/10 06:07:02;;;;;;;0.20;0.10;;;;;;;1.97;100.00;98205.25;5054344;28;20454;-49
2021/12/10 06:09:29;;;;;;;0.20;0.10;;;;;;;1.86;100.00;98199.47;5052387;28;20494;-49
2021/12/10 06:11:56;;;;;;;0.20;0.10;;;;;;;1.92;100.00;98194.94;5042337;28;20479;-48
2021/12/10 06:14:22;;;;;;;0.20;0.10;;;;;;;1.93;100.00;98196.63;5040615;28;20929;-49
2021/12/10 06:16:52;;;;;;;0.20;0.10;;;;;;;1.92;100.00;98189.69;5053875;28;20940;-49
2021/12/10 06:19:20;;;;;;;0.20;0.20;;;;;;;1.97;100.00;98190.41;5051580;28;20443;-49
2021/12/10 06:21:47;;;;;;;0.20;0.10;;;;;;;2.00;100.00;98161.50;5043749;28;20450;-49
2021/12/10 06:24:14;;;;;;;0.20;0.10;;;;;;;2.21;100.00;98170.50;5050495;28;20447;-49
2021/12/10 06:26:40;;;;;;;0.20;0.10;;;;;;;2.17;100.00;98168.84;5043822;28;20453;-49
2021/12/10 06:29:08;;;;;;;0.20;0.10;;;;;;;2.10;100.00;98175.19;5040161;28;20459;-49
2021/12/10 06:31:36;;;;;;;0.20;0.10;;;;;;;2.12;100.00;98167.28;5053765;28;20548;-49
2021/12/10 06:34:08;;;;;;;0.20;0.10;;;;;;;1.95;100.00;98160.78;5053897;28;20450;-49
2021/12/10 06:36:35;;;;;;;0.20;0.10;;;;;;;1.93;100.00;98173.06;5042462;28;20448;-49
2021/12/10 06:39:04;;;;;;;0.20;0.10;;;;;;;2.00;100.00;98158.88;5051560;28;20475;-49
2021/12/10 06:41:31;;;;;;;0.20;0.10;;;;;;;1.93;100.00;98161.72;5053289;28;20447;-49
2021/12/10 06:43:59;;;;;;;0.20;0.10;;;;;;;2.05;100.00;98158.72;5040316;28;20450;-49
2021/12/10 06:46:25;;;;;;;0.20;0.10;;;;;;;2.03;100.00;98152.69;5041799;28;20459;-49
2021/12/10 06:48:53;;;;;;;0.20;0.10;;;;;;;2.18;100.00;98147.00;5046863;28;20525;-49
2021/12/10 06:51:21;;;;;;;0.20;0.10;;;;;;;2.22;100.00;98137.31;5045702;28;20860;-49
2021/12/10 06:53:49;;;;;;;0.20;0.10;;;;;;;2.22;100.00;98139.91;5039925;28;20496;-50
2021/12/10 06:56:17;;;;;;;0.20;0.10;;;;;;;2.20;100.00;98141.72;5039460;28;20478;-49
2021/12/10 06:58:44;;;;;;;0.20;0.10;;;;;;;2.22;100.00;98137.31;5053693;28;20470;-49
2021/12/10 07:01:24;;;;;;;0.20;0.10;;;;;;;2.14;100.00;98139.28;5053425;28;20470;-49
2021/12/10 07:03:52;;;;;;;0.20;0.10;;;;;;;2.16;100.00;98138.31;5033624;28;20455;-49
2021/12/10 07:06:19;;;;;;;0.20;0.10;;;;;;;2.25;100.00;98139.81;5046646;28;20451;-49
2021/12/10 07:08:47;;;;;;;0.20;0.10;;;;;;;2.01;100.00;98137.00;5042544;28;20451;-49
2021/12/10 07:11:16;;;;;;;0.20;0.10;;;;;;;1.94;100.00;98127.63;5039594;28;20527;-49
2021/12/10 07:13:46;;;;;;;0.20;0.10;;;;;;;1.86;100.00;98137.47;5043316;28;20447;-49
2021/12/10 07:16:13;;;;;;;0.20;0.10;;;;;;;1.78;100.00;98121.97;5046325;28;20937;-49
2021/12/10 07:18:41;;;;;;;0.20;0.10;;;;;;;1.82;100.00;98116.66;5043474;28;20454;-49
2021/12/10 07:21:09;;;;;;;0.20;0.10;;;;;;;1.91;100.00;98122.44;5039444;28;21036;-49
2021/12/10 07:23:37;;;;;;;0.20;0.10;;;;;;;1.94;100.00;98125.00;5041751;28;20484;-49
2021/12/10 07:26:05;;;;;;;0.20;0.10;;;;;;;2.04;100.00;98121.19;5040869;28;20451;-49
2021/12/10 07:28:32;;;;;;;0.20;0.10;;;;;;;1.89;100.00;98126.88;5040571;28;20475;-49
2021/12/10 07:30:59;;;;;;;0.20;0.10;;;;;;;1.93;100.00;98119.81;5051454;28;20504;-49
2021/12/10 07:33:26;;;;;;;0.20;0.10;;;;;;;2.12;100.00;98122.75;5052568;28;20446;-49
2021/12/10 07:35:53;;;;;;;0.20;0.10;;;;;;;2.04;100.00;98122.97;5047049;28;20483;-49
2021/12/10 07:38:20;;;;;;;0.20;0.10;;;;;;;1.91;100.00;98125.06;5044716;28;20978;-49
2021/12/10 07:40:47;;;;;;;0.20;0.10;;;;;;;1.81;100.00;98118.41;5046912;28;20503;-49
2021/12/10 07:43:17;;;;;;;0.53;0.50;;;;;;;1.94;100.00;98111.06;5032586;28;20443;-49
2021/12/10 07:45:47;;;;;;;0.20;0.10;;;;;;;1.83;100.00;98107.88;5051834;28;20497;-49
2021/12/10 07:48:17;;;;;;;0.20;0.10;;;;;;;1.92;100.00;98104.97;5052374;28;20462;-49
2021/12/10 07:50:53;;;;;;;0.20;0.10;;;;;;;1.91;100.00;98105.88;5039484;28;20996;-49
2021/12/10 07:53:21;;;;;;;0.20;0.10;;;;;;;2.21;100.00;98104.13;5050905;28;20470;-49
2021/12/10 07:55:49;;;;;;;0.20;0.10;;;;;;;1.95;100.00;98110.16;5041505;28;20509;-49
2021/12/10 07:58:16;;;;;;;0.20;0.10;;;;;;;2.03;100.00;98114.25;5039821;28;20796;-49
2021/12/10 08:00:46;;;;;;;0.20;0.10;;;;;;;2.06;100.00;98116.78;5052330;28;20482;-49
2021/12/10 08:03:13;;;;;;;0.20;0.10;;;;;;;2.36;100.00;98122.88;5049766;28;20462;-49
2021/12/10 08:05:40;;;;;;;0.20;0.10;;;;;;;2.22;100.00;98118.97;5042491;28;20471;-49
2021/12/10 08:08:09;;;;;;;0.20;0.10;;;;;;;2.29;100.00;98121.31;5039372;28;20767;-49
2021/12/10 08:10:38;;;;;;;0.20;0.10;;;;;;;2.34;100.00;98119.44;5052230;28;20516;-49
2021/12/10 08:13:06;;;;;;;0.20;0.10;;;;;;;2.42;100.00;98115.72;5048196;28;20495;-49
2021/12/10 08:15:33;;;;;;;0.20;0.10;;;;;;;2.31;100.00;98113.41;5043535;28;20476;-49
2021/12/10 08:18:00;;;;;;;0.20;0.10;;;;;;;2.42;100.00;98121.81;5039026;28;20534;-50
2021/12/10 08:20:28;;;;;;;0.20;0.10;;;;;;;2.45;100.00;98116.47;5041514;28;20564;-49
2021/12/10 08:22:56;;;;;;;0.20;0.10;;;;;;;2.51;100.00;98112.81;5050105;28;20816;-49
2021/12/10 08:25:23;;;;;;;0.20;0.10;;;;;;;2.32;100.00;98110.75;5052267;28;20512;-49
2021/12/10 08:27:51;;;;;;;0.20;0.10;;;;;;;2.27;100.00;98112.66;5047281;28;20475;-49
2021/12/10 08:30:21;;;;;;;0.20;0.10;;;;;;;2.40;100.00;98102.66;5043755;28;20879;-49
2021/12/10 08:32:48;;;;;;;0.20;0.10;;;;;;;2.53;100.00;98106.59;5046408;28;20933;-49
2021/12/10 08:35:20;;;;;;;0.20;0.10;;;;;;;2.44;100.00;98098.16;5047774;28;20446;-49
2021/12/10 08:37:47;;;;;;;0.20;0.10;;;;;;;2.52;100.00;98093.56;5032415;28;20489;-49
2021/12/10 08:40:21;;;;;;;0.20;0.10;;;;;;;2.59;100.00;98088.03;5047109;28;20520;-50
2021/12/10 08:42:49;;;;;;;0.20;0.10;;;;;;;2.49;100.00;98085.78;5047854;28;20471;-49
2021/12/10 08:45:19;;;;;;;0.20;0.10;;;;;;;2.60;100.00;98078.41;5051424;28;20493;-49
2021/12/10 08:47:47;;;;;;;0.20;0.10;;;;;;;2.79;100.00;98076.06;5046712;28;20505;-49
2021/12/10 08:50:18;;;;;;;0.30;0.20;;;;;;;2.91;100.00;98075.66;5038490;28;21056;-49
2021/12/10 08:52:44;;;;;;;0.20;0.10;;;;;;;2.84;100.00;98067.13;5046177;28;20522;-49
2021/12/10 08:55:11;;;;;;;0.20;0.10;;;;;;;2.94;100.00;98068.53;5055171;28;20512;-49
2021/12/10 08:57:38;;;;;;;0.20;0.10;;;;;;;3.08;100.00;98065.44;5055593;28;21013;-49
2021/12/10 09:00:07;;;;;;;0.20;0.10;;;;;;;3.01;100.00;98058.66;5052032;28;20541;-49
2021/12/10 09:02:36;;;;;;;0.30;0.20;;;;;;;2.98;100.00;98048.28;5045496;28;20442;-49
2021/12/10 09:05:03;;;;;;;0.20;0.10;;;;;;;2.74;100.00;98039.50;5041908;28;20745;-49
2021/12/10 09:07:29;;;;;;;0.20;0.17;;;;;;;2.81;100.00;98034.91;5055621;28;20451;-49
2021/12/10 09:09:56;;;;;;;0.20;0.20;;;;;;;2.84;100.00;98025.16;5050434;28;20514;-49
2021/12/10 09:12:25;;;;;;;0.20;0.10;;;;;;;2.94;100.00;98034.44;5047318;28;20518;-49
2021/12/10 09:14:55;;;;;;;0.20;0.10;;;;;;;2.90;100.00;98024.09;5040757;28;21029;-49
2021/12/10 09:17:27;;;;;;;0.20;0.10;;;;;;;2.98;100.00;98022.03;5042558;28;20459;-49
2021/12/10 09:19:57;;;;;;;0.20;0.10;;;;;;;2.71;100.00;98005.50;5046770;28;20525;-49
2021/12/10 09:22:25;;;;;;;0.20;0.10;;;;;;;2.61;100.00;98006.72;5050008;28;20451;-48
2021/12/10 09:24:54;;;;;;;0.20;0.20;;;;;;;2.82;100.00;98007.75;5047877;28;20451;-49
2021/12/10 09:27:23;;;;;;;0.20;0.10;;;;;;;2.84;100.00;98014.66;5050504;28;20952;-49
2021/12/10 09:29:54;;;;;;;0.20;0.10;;;;;;;3.06;100.00;98020.03;5055248;28;20506;-49
2021/12/10 09:32:24;;;;;;;0.20;0.10;;;;;;;3.24;100.00;98016.75;5041797;28;20523;-50
2021/12/10 09:34:55;;;;;;;0.20;0.10;;;;;;;3.17;100.00;98025.75;5055387;28;20443;-50
2021/12/10 09:37:23;;;;;;;0.20;0.10;;;;;;;3.26;100.00;98024.56;5043517;28;20442;-49
2021/12/10 09:39:51;;;;;;;0.20;0.10;;;;;;;3.28;100.00;98017.47;5055643;28;20467;-50
2021/12/10 09:42:20;;;;;;;0.20;0.10;;;;;;;3.17;100.00;98011.78;5050384;28;20501;-49
2021/12/10 09:44:47;;;;;;;0.20;0.10;;;;;;;3.24;100.00;98008.00;5047402;28;20853;-50
2021/12/10 09:47:15;;;;;;;0.20;0.10;;;;;;;3.48;100.00;98006.28;5050771;28;20521;-49
2021/12/10 09:49:49;;;;;;;0.20;0.10;;;;;;;3.60;100.00;97994.44;5038561;28;20468;-49
2021/12/10 09:52:19;;;;;;;0.20;0.10;;;;;;;3.48;99.96;97995.75;5054861;28;20491;-51
2021/12/10 09:54:47;;;;;;;0.20;0.10;;;;;;;3.47;99.98;97999.31;5055312;28;20504;-49
2021/12/10 09:57:27;;;;;;;0.20;0.10;;;;;;;3.68;99.68;97992.38;5042322;28;20462;-50
2021/12/10 10:00:37;;;;;;;0.20;0.10;;;;;;;3.24;100.00;97987.88;5050361;28;20475;-49
2021/12/10 10:03:07;;;;;;;0.20;0.10;;;;;;;3.31;100.00;97999.00;5049929;28;20455;-49
2021/12/10 10:05:34;;;;;;;0.20;0.10;;;;;;;3.16;99.96;97979.44;5046768;28;20490;-49
2021/12/10 10:08:07;;;;;;;0.20;0.10;;;;;;;3.24;99.99;97979.13;5050249;28;20772;-49
2021/12/10 10:10:36;;;;;;;0.20;0.10;;;;;;;3.19;100.00;97981.94;5045628;28;20468;-49
2021/12/10 10:13:05;;;;;;;0.20;0.10;;;;;;;3.10;100.00;97979.63;5050902;28;20519;-49
2021/12/10 10:15:38;;;;;;;0.20;0.10;;;;;;;3.29;100.00;97979.84;5054451;28;20584;-49
2021/12/10 10:18:08;;;;;;;0.20;0.10;;;;;;;3.37;100.00;97975.16;5040583;28;20530;-50
2021/12/10 10:20:39;;;;;;;0.20;0.10;;;;;;;3.25;100.00;97981.69;5043377;28;20521;-49
2021/12/10 10:23:06;;;;;;;0.20;0.10;;;;;;;3.26;100.00;97965.03;5053065;28;20447;-49
2021/12/10 10:25:35;;;;;;;0.20;0.10;;;;;;;3.36;100.00;97965.56;5041054;28;20496;-49
2021/12/10 10:28:04;;;;;;;0.20;0.10;;;;;;;3.18;100.00;97967.09;5053767;28;20824;-49
2021/12/10 10:30:42;;;;;;;0.20;0.10;;;;;;;3.28;100.00;97965.84;5054749;28;20471;-49
2021/12/10 10:33:11;;;;;;;0.20;0.10;;;;;;;3.39;100.00;97969.84;5035578;28;20903;-49
2021/12/10 10:35:47;;;;;;;0.20;0.10;;;;;;;3.54;99.86;97966.63;5050605;28;20501;-49
2021/12/10 10:38:16;;;;;;;0.20;0.10;;;;;;;3.69;99.34;97963.41;5046259;28;20450;-49
2021/12/10 10:40:48;;;;;;;0.20;0.10;;;;;;;3.59;98.40;97961.22;5049432;28;20468;-49
2021/12/10 10:43:14;;;;;;;0.20;0.10;;;;;;;3.62;98.24;97963.72;5034857;28;20463;-49
2021/12/10 10:45:44;;;;;;;0.20;0.10;;;;;;;3.67;98.60;97964.41;5053721;28;20451;-49
2021/12/10 10:48:13;;;;;;;0.20;0.10;;;;;;;3.74;98.67;97969.38;5054793;28;20447;-50
2021/12/10 10:50:53;;;;;;;0.20;0.10;;;;;;;3.85;98.46;97966.34;5041562;28;20479;-49
2021/12/10 10:53:27;;;;;;;0.20;0.10;;;;;;;3.82;97.95;97959.41;5052223;28;20528;-49
2021/12/10 10:56:17;;;;;;;0.20;0.10;;;;;;;3.65;98.51;97966.22;5043775;28;20450;-49
2021/12/10 10:58:55;;;;;;;0.20;0.10;;;;;;;3.77;97.51;97968.38;5045544;28;20546;-50
2021/12/10 11:01:32;;;;;;;0.20;0.10;;;;;;;3.87;97.51;97964.50;5048880;28;20467;-49
2021/12/10 11:04:28;;;;;;;0.20;0.10;;;;;;;4.03;97.12;97968.22;5053138;28;20450;-49
2021/12/10 11:07:05;;;;;;;0.20;0.17;;;;;;;4.06;97.17;97967.25;5034109;28;20538;-49
2021/12/10 11:09:34;;;;;;;0.20;0.10;;;;;;;3.63;97.04;97968.91;5048902;28;20463;-49
2021/12/10 11:12:04;;;;;;;0.30;0.20;;;;;;;3.80;98.93;97971.75;5053383;28;20451;-49
2021/12/10 11:14:44;;;;;;;0.30;0.20;;;;;;;3.69;99.62;97966.03;5050381;28;20448;-49
2021/12/10 11:17:33;;;;;;;0.20;0.10;;;;;;;3.80;100.00;97969.13;5045043;28;20472;-49
2021/12/10 11:20:25;;;;;;;0.20;0.10;;;;;;;3.63;100.00;97968.91;5044052;28;20472;-49
2021/12/10 11:23:02;;;;;;;0.20;0.10;;;;;;;3.51;100.00;97964.13;5051249;28;20874;-50
2021/12/10 11:25:39;;;;;;;0.30;0.10;;;;;;;3.70;100.00;97962.53;5040893;28;20558;-49
2021/12/10 11:28:09;;;;;;;0.20;0.10;;;;;;;3.58;100.00;97963.00;5041384;28;20971;-49
2021/12/10 11:30:41;;;;;;;0.20;0.10;;;;;;;3.63;100.00;97966.28;5051585;28;20521;-49
2021/12/10 11:33:10;;;;;;;0.20;0.10;;;;;;;3.38;100.00;97965.50;5042639;28;20577;-49
2021/12/10 11:35:39;;;;;;;0.20;0.10;;;;;;;3.37;100.00;97964.66;5050267;28;20534;-49
2021/12/10 11:38:16;;;;;;;0.20;0.10;;;;;;;3.24;100.00;97956.38;5044007;28;20465;-49
2021/12/10 11:40:51;;;;;;;0.20;0.10;;;;;;;3.37;100.00;97963.78;5050083;28;20467;-49
2021/12/10 11:48:34;;;;;;;0.20;0.10;;;;;;;3.09;100.00;97935.94;5047128;28;20526;-49
2021/12/10 11:51:13;;;;;;;0.20;0.10;;;;;;;3.16;100.00;97936.59;5045437;28;20525;-49
2021/12/10 11:53:51;;;;;;;0.20;0.10;;;;;;;3.18;100.00;97932.97;5039546;28;20636;-50
2021/12/10 11:56:21;;;;;;;0.20;0.10;;;;;;;3.18;100.00;97932.13;5053694;28;20439;-49
2021/12/10 11:59:04;;;;;;;0.20;0.10;;;;;;;3.16;100.00;97933.97;5032953;28;20513;-49
2021/12/10 12:01:33;;;;;;;0.20;0.10;;;;;;;2.95;100.00;97941.69;5047396;28;20546;-49
2021/12/10 12:04:16;;;;;;;0.20;0.10;;;;;;;2.95;100.00;97940.81;5043716;28;20584;-49